Time;durP1;ratioP1;P1;durP2;ratioP2;P2;SDS_P1;SDS_P2;PMS_P1;PMS_P2;Temp;Humidity;BMP_temperature;BMP_pressure;BME280_temperature;BME280_humidity;BME280_pressure;Samples;Min_cycle;Max_cycle;Signal;HPM_P1;HPM_P2
2023/06/03 00:00:52;;;;;;;;;;;12.50;99.90;;;;;;4935092;29;19931;-79
2023/06/03 00:03:18;;;;;;;;;;;12.60;99.90;;;;;;4925497;29;19935;-76
2023/06/03 00:05:44;;;;;;;;;;;12.50;99.90;;;;;;4928128;29;19931;-78
2023/06/03 00:08:09;;;;;;;;;;;12.50;99.90;;;;;;4918526;29;19927;-79
2023/06/03 00:10:35;;;;;;;;;;;12.40;99.90;;;;;;4936897;29;20308;-79
2023/06/03 00:13:01;;;;;;;;;;;12.40;99.90;;;;;;4913269;29;19927;-79
2023/06/03 00:15:26;;;;;;;;;;;12.50;99.90;;;;;;4943252;29;19969;-80
2023/06/03 00:17:52;;;;;;;;;;;12.30;99.90;;;;;;4903898;29;19938;-79
2023/06/03 00:20:17;;;;;;;;;;;12.30;99.90;;;;;;4933608;29;20022;-79
2023/06/03 00:22:45;;;;;;;;;;;12.30;99.90;;;;;;4925728;29;19983;-77
2023/06/03 00:25:11;;;;;;;;;;;12.30;99.90;;;;;;4902658;29;19978;-78
2023/06/03 00:27:38;;;;;;;;;;;12.30;99.90;;;;;;4924605;29;19927;-79
2023/06/03 00:30:04;;;;;;;;;;;12.30;99.90;;;;;;4925315;29;19935;-80
2023/06/03 00:32:30;;;;;;;;;;;12.20;99.90;;;;;;4922568;29;19927;-78
2023/06/03 00:34:56;;;;;;;;;;;12.20;99.90;;;;;;4927238;29;19934;-79
2023/06/03 00:37:21;;;;;;;;;;;12.20;99.90;;;;;;4933667;29;19993;-79
2023/06/03 00:39:47;;;;;;;;;;;12.20;99.90;;;;;;4905515;29;19979;-79
2023/06/03 00:42:12;;;;;;;;;;;12.20;99.90;;;;;;4920527;29;19978;-79
2023/06/03 00:44:38;;;;;;;;;;;12.10;99.90;;;;;;4925860;29;19927;-78
2023/06/03 00:47:04;;;;;;;;;;;12.10;99.90;;;;;;4920720;29;19935;-79
2023/06/03 00:49:30;;;;;;;;;;;12.10;99.90;;;;;;4912087;29;20025;-77
2023/06/03 00:51:56;;;;;;;;;;;12.10;99.90;;;;;;4890549;29;19927;-78
2023/06/03 00:54:21;;;;;;;;;;;12.10;99.90;;;;;;4901755;29;19931;-77
2023/06/03 00:56:47;;;;;;;;;;;12.00;99.90;;;;;;4917996;29;19934;-78
2023/06/03 00:59:14;;;;;;;;;;;12.00;99.90;;;;;;4922098;29;20036;-79
2023/06/03 01:01:42;;;;;;;;;;;12.10;99.90;;;;;;4920101;29;20389;-79
2023/06/03 01:04:08;;;;;;;;;;;11.90;99.90;;;;;;4903022;29;19927;-78
2023/06/03 01:06:45;;;;;;;;;;;11.90;99.90;;;;;;4918389;29;19974;-78
2023/06/03 01:09:33;;;;;;;;;;;11.90;99.90;;;;;;4906537;29;19931;-78
2023/06/03 01:12:17;;;;;;;;;;;11.90;99.90;;;;;;4912763;29;19963;-78
2023/06/03 01:14:48;;;;;;;;;;;11.90;99.90;;;;;;4917305;29;19970;-79
2023/06/03 01:17:16;;;;;;;;;;;11.80;99.90;;;;;;4893831;29;19935;-78
2023/06/03 01:19:50;;;;;;;;;;;11.80;99.90;;;;;;4920459;29;19931;-79
2023/06/03 01:22:20;;;;;;;;;;;11.80;99.90;;;;;;4922490;29;19927;-78
2023/06/03 01:24:48;;;;;;;;;;;11.80;99.90;;;;;;4920065;29;19954;-79
2023/06/03 01:27:17;;;;;;;;;;;11.80;99.90;;;;;;4915045;29;19942;-79
2023/06/03 01:29:43;;;;;;;;;;;11.80;99.90;;;;;;4925068;29;19962;-79
2023/06/03 01:32:11;;;;;;;;;;;11.80;99.90;;;;;;4913717;29;19923;-79
2023/06/03 01:34:37;;;;;;;;;;;12.10;99.90;;;;;;4925675;29;20454;-79
2023/06/03 01:37:03;;;;;;;;;;;12.00;99.90;;;;;;4892147;29;19928;-80
2023/06/03 01:39:29;;;;;;;;;;;11.70;99.90;;;;;;4928111;29;19934;-79
2023/06/03 01:41:55;;;;;;;;;;;11.70;99.90;;;;;;4924952;29;20393;-78
2023/06/03 01:44:20;;;;;;;;;;;11.60;99.90;;;;;;4926507;29;19931;-78
2023/06/03 01:46:46;;;;;;;;;;;11.60;99.90;;;;;;4913321;29;19927;-78
2023/06/03 01:49:11;;;;;;;;;;;11.60;99.90;;;;;;4909223;29;19999;-79
2023/06/03 01:51:37;;;;;;;;;;;11.60;99.90;;;;;;4921865;29;19927;-78
2023/06/03 01:54:02;;;;;;;;;;;11.50;99.90;;;;;;4905284;29;19935;-78
2023/06/03 01:56:28;;;;;;;;;;;11.50;99.90;;;;;;4906548;29;19931;-78
2023/06/03 01:58:54;;;;;;;;;;;11.50;99.90;;;;;;4915759;29;19975;-78
2023/06/03 02:01:21;;;;;;;;;;;11.40;99.90;;;;;;4914876;29;19927;-78
2023/06/03 02:03:47;;;;;;;;;;;11.40;99.90;;;;;;4908494;29;19927;-78
2023/06/03 02:06:13;;;;;;;;;;;11.40;99.90;;;;;;4913086;29;20019;-78
2023/06/03 02:08:39;;;;;;;;;;;11.30;99.90;;;;;;4915013;29;20030;-78
2023/06/03 02:11:05;;;;;;;;;;;11.30;99.90;;;;;;4915066;29;19927;-78
2023/06/03 02:13:30;;;;;;;;;;;11.30;99.90;;;;;;4915999;29;19927;-78
2023/06/03 02:15:56;;;;;;;;;;;11.20;99.90;;;;;;4899544;29;19935;-78
2023/06/03 02:18:21;;;;;;;;;;;11.40;99.90;;;;;;4913089;29;20373;-78
2023/06/03 02:20:47;;;;;;;;;;;11.10;99.90;;;;;;4898131;29;20046;-78
2023/06/03 02:23:13;;;;;;;;;;;11.10;99.90;;;;;;4914465;29;19955;-78
2023/06/03 02:25:38;;;;;;;;;;;11.00;99.90;;;;;;4896395;29;20021;-78
2023/06/03 02:28:04;;;;;;;;;;;11.00;99.90;;;;;;4927796;29;19969;-78
2023/06/03 02:30:30;;;;;;;;;;;11.00;99.90;;;;;;4918388;29;20700;-77
2023/06/03 02:32:55;;;;;;;;;;;10.90;99.90;;;;;;4918694;29;20216;-78
2023/06/03 02:35:21;;;;;;;;;;;10.90;99.90;;;;;;4917260;29;19935;-78
2023/06/03 02:37:47;;;;;;;;;;;10.80;99.90;;;;;;4913711;29;21161;-77
2023/06/03 02:40:12;;;;;;;;;;;10.80;99.90;;;;;;4905895;29;19934;-78
2023/06/03 02:42:38;;;;;;;;;;;11.10;99.90;;;;;;4923402;29;19962;-78
2023/06/03 02:45:04;;;;;;;;;;;10.70;99.90;;;;;;4920844;29;19928;-78
2023/06/03 02:47:29;;;;;;;;;;;10.60;99.90;;;;;;4901772;29;20297;-78
2023/06/03 02:49:56;;;;;;;;;;;10.60;99.90;;;;;;4919153;29;19945;-78
2023/06/03 02:52:22;;;;;;;;;;;10.60;99.90;;;;;;4919288;29;19934;-78
2023/06/03 02:54:48;;;;;;;;;;;10.50;99.90;;;;;;4926634;29;19958;-79
2023/06/03 02:57:14;;;;;;;;;;;10.50;99.90;;;;;;4907643;29;19927;-79
2023/06/03 02:59:39;;;;;;;;;;;10.50;99.90;;;;;;4920734;29;19927;-79
2023/06/03 03:02:05;;;;;;;;;;;10.50;99.90;;;;;;4916743;29;19927;-79
2023/06/03 03:04:33;;;;;;;;;;;10.40;99.90;;;;;;4920259;29;19937;-79
2023/06/03 03:06:59;;;;;;;;;;;10.40;99.90;;;;;;4920392;29;19927;-79
2023/06/03 03:09:25;;;;;;;;;;;10.40;99.90;;;;;;4919161;29;19950;-79
2023/06/03 03:11:51;;;;;;;;;;;10.40;99.90;;;;;;4902146;29;19927;-79
2023/06/03 03:14:17;;;;;;;;;;;10.30;99.90;;;;;;4899788;29;19928;-79
2023/06/03 03:16:43;;;;;;;;;;;10.40;99.90;;;;;;4901879;29;19927;-79
2023/06/03 03:19:09;;;;;;;;;;;10.30;99.90;;;;;;4905163;29;19935;-79
2023/06/03 03:21:35;;;;;;;;;;;10.30;99.90;;;;;;4920791;29;19931;-79
2023/06/03 03:24:01;;;;;;;;;;;10.40;99.90;;;;;;4919893;29;19927;-79
2023/06/03 03:26:27;;;;;;;;;;;10.30;99.90;;;;;;4906961;29;19962;-79
2023/06/03 03:28:53;;;;;;;;;;;10.30;99.90;;;;;;4922312;29;19934;-79
2023/06/03 03:31:20;;;;;;;;;;;10.30;99.90;;;;;;4920693;29;19927;-79
2023/06/03 03:33:48;;;;;;;;;;;10.30;99.90;;;;;;4907089;29;20415;-79
2023/06/03 03:36:20;;;;;;;;;;;10.30;99.90;;;;;;4905354;29;19927;-79
2023/06/03 03:38:50;;;;;;;;;;;10.40;99.90;;;;;;4922635;29;19933;-78
2023/06/03 03:41:15;;;;;;;;;;;10.40;99.90;;;;;;4898280;29;19927;-79
2023/06/03 03:43:42;;;;;;;;;;;10.40;99.90;;;;;;4921720;29;20432;-79
2023/06/03 03:46:09;;;;;;;;;;;10.40;99.90;;;;;;4923643;29;19970;-79
2023/06/03 03:48:35;;;;;;;;;;;10.40;99.90;;;;;;4924589;29;20425;-78
2023/06/03 03:51:00;;;;;;;;;;;10.50;99.90;;;;;;4928103;29;19927;-78
2023/06/03 03:53:35;;;;;;;;;;;10.50;99.90;;;;;;4911085;29;19982;-78
2023/06/03 03:56:01;;;;;;;;;;;10.60;99.90;;;;;;4932605;29;19982;-79
2023/06/03 03:58:36;;;;;;;;;;;10.50;99.90;;;;;;4931720;29;20357;-78
2023/06/03 04:01:09;;;;;;;;;;;10.50;99.90;;;;;;4927032;29;20376;-79
2023/06/03 04:03:40;;;;;;;;;;;10.60;99.90;;;;;;4923986;29;20336;-78
2023/06/03 04:06:12;;;;;;;;;;;10.60;99.90;;;;;;4922690;29;19927;-79
2023/06/03 04:08:43;;;;;;;;;;;10.60;99.90;;;;;;4921856;29;19927;-79
2023/06/03 04:11:28;;;;;;;;;;;10.60;99.90;;;;;;4923486;29;20618;-79
2023/06/03 04:13:58;;;;;;;;;;;10.70;99.90;;;;;;4915019;29;20002;-79
2023/06/03 04:16:42;;;;;;;;;;;10.70;99.90;;;;;;4921098;29;20250;-79
2023/06/03 04:19:17;;;;;;;;;;;10.70;99.90;;;;;;4906549;29;19933;-79
2023/06/03 04:21:43;;;;;;;;;;;10.70;99.90;;;;;;4923717;29;19927;-79
2023/06/03 04:24:09;;;;;;;;;;;10.80;99.90;;;;;;4929819;29;19933;-79
2023/06/03 04:26:34;;;;;;;;;;;10.80;99.90;;;;;;4905968;29;19991;-79
2023/06/03 04:29:00;;;;;;;;;;;10.80;99.90;;;;;;4919081;29;20064;-78
2023/06/03 04:31:26;;;;;;;;;;;10.90;99.90;;;;;;4921219;29;20317;-78
2023/06/03 04:33:52;;;;;;;;;;;11.00;99.90;;;;;;4923851;29;19985;-79
2023/06/03 04:36:18;;;;;;;;;;;10.90;99.90;;;;;;4889181;29;19927;-79
2023/06/03 04:38:45;;;;;;;;;;;10.90;99.90;;;;;;4903100;29;19993;-79
2023/06/03 04:41:12;;;;;;;;;;;11.00;99.90;;;;;;4912571;29;19931;-79
2023/06/03 04:43:38;;;;;;;;;;;11.00;99.90;;;;;;4913663;29;20409;-78
2023/06/03 04:46:06;;;;;;;;;;;11.00;99.90;;;;;;4905340;29;19934;-78
2023/06/03 04:48:33;;;;;;;;;;;11.20;99.90;;;;;;4920387;29;19999;-78
2023/06/03 04:51:01;;;;;;;;;;;11.10;99.90;;;;;;4905713;29;19934;-79
2023/06/03 04:53:28;;;;;;;;;;;11.20;99.90;;;;;;4906042;29;20304;-78
2023/06/03 04:55:53;;;;;;;;;;;11.30;99.90;;;;;;4908696;29;19927;-79
2023/06/03 04:58:19;;;;;;;;;;;11.40;99.90;;;;;;4924638;29;20021;-79
2023/06/03 05:00:48;;;;;;;;;;;11.50;99.90;;;;;;4888156;29;19927;-79
2023/06/03 05:03:16;;;;;;;;;;;11.60;99.90;;;;;;4927500;29;20014;-79
2023/06/03 05:05:42;;;;;;;;;;;12.60;99.90;;;;;;4901125;29;19935;-78
2023/06/03 05:08:09;;;;;;;;;;;11.80;99.90;;;;;;4900196;29;20354;-78
2023/06/03 05:10:34;;;;;;;;;;;11.90;99.90;;;;;;4923457;29;19929;-79
2023/06/03 05:13:01;;;;;;;;;;;11.70;99.90;;;;;;4902799;29;20021;-78
2023/06/03 05:15:27;;;;;;;;;;;12.00;99.90;;;;;;4898333;29;19927;-78
2023/06/03 05:17:52;;;;;;;;;;;12.00;99.90;;;;;;4917840;29;19985;-79
2023/06/03 05:20:18;;;;;;;;;;;12.40;99.90;;;;;;4931787;29;19911;-78
2023/06/03 05:22:44;;;;;;;;;;;12.00;99.90;;;;;;4891679;29;19927;-79
2023/06/03 05:25:09;;;;;;;;;;;12.20;99.90;;;;;;4933563;29;19947;-78
2023/06/03 05:27:35;;;;;;;;;;;12.30;99.90;;;;;;4923656;29;19928;-78
2023/06/03 05:30:01;;;;;;;;;;;12.50;99.90;;;;;;4904144;29;19927;-79
2023/06/03 05:32:26;;;;;;;;;;;12.70;99.90;;;;;;4901682;29;19931;-79
2023/06/03 05:34:52;;;;;;;;;;;12.90;99.90;;;;;;4919502;29;19931;-78
2023/06/03 05:37:17;;;;;;;;;;;13.00;99.90;;;;;;4901786;29;19927;-78
2023/06/03 05:39:43;;;;;;;;;;;13.00;99.90;;;;;;4914031;29;19934;-77
2023/06/03 05:42:09;;;;;;;;;;;13.20;99.90;;;;;;4909557;29;19928;-78
2023/06/03 05:44:34;;;;;;;;;;;13.20;99.90;;;;;;4898053;29;19971;-77
2023/06/03 05:47:00;;;;;;;;;;;13.30;99.90;;;;;;4916300;29;19935;-78
2023/06/03 05:49:25;;;;;;;;;;;13.50;99.90;;;;;;4919598;29;19927;-79
2023/06/03 05:51:51;;;;;;;;;;;13.70;99.90;;;;;;4919547;29;19927;-78
2023/06/03 05:54:16;;;;;;;;;;;13.90;99.90;;;;;;4909939;29;19950;-79
2023/06/03 05:56:42;;;;;;;;;;;14.30;99.90;;;;;;4907169;29;19935;-78
2023/06/03 05:59:07;;;;;;;;;;;14.60;99.90;;;;;;4916717;29;19931;-79
2023/06/03 06:01:33;;;;;;;;;;;15.10;99.90;;;;;;4919113;29;19927;-80
2023/06/03 06:03:59;;;;;;;;;;;15.60;99.90;;;;;;4912138;29;19927;-80
2023/06/03 06:06:25;;;;;;;;;;;16.00;98.40;;;;;;4932355;29;20058;-77
2023/06/03 06:08:50;;;;;;;;;;;16.30;97.90;;;;;;4918091;29;19938;-78
2023/06/03 06:11:16;;;;;;;;;;;16.40;97.80;;;;;;4915690;29;19934;-78
2023/06/03 06:13:41;;;;;;;;;;;16.30;97.40;;;;;;4915605;29;20624;-79
2023/06/03 06:16:07;;;;;;;;;;;16.40;97.10;;;;;;4915155;29;19934;-79
2023/06/03 06:18:33;;;;;;;;;;;16.30;96.40;;;;;;4918672;29;19927;-80
2023/06/03 06:20:59;;;;;;;;;;;16.20;96.40;;;;;;4899913;29;19927;-78
2023/06/03 06:23:25;;;;;;;;;;;15.90;96.50;;;;;;4914406;29;19961;-79
2023/06/03 06:25:51;;;;;;;;;;;15.80;97.00;;;;;;4892251;29;20298;-78
2023/06/03 06:28:21;;;;;;;;;;;15.70;97.70;;;;;;4890750;29;19928;-78
2023/06/03 06:30:47;;;;;;;;;;;15.70;97.60;;;;;;4931715;29;19934;-79
2023/06/03 06:33:14;;;;;;;;;;;15.80;98.10;;;;;;4897938;29;20305;-79
2023/06/03 06:35:39;;;;;;;;;;;15.90;98.40;;;;;;4917371;29;19934;-80
2023/06/03 06:38:05;;;;;;;;;;;16.00;98.00;;;;;;4921159;29;19927;-79
2023/06/03 06:40:33;;;;;;;;;;;16.00;97.40;;;;;;4921217;29;19986;-79
2023/06/03 06:42:58;;;;;;;;;;;16.00;97.00;;;;;;4913077;29;19982;-80
2023/06/03 06:45:26;;;;;;;;;;;16.00;97.00;;;;;;4911169;29;20362;-79
2023/06/03 06:47:57;;;;;;;;;;;16.00;97.10;;;;;;4901170;29;19956;-79
2023/06/03 06:50:26;;;;;;;;;;;16.10;97.80;;;;;;4917765;29;19959;-79
2023/06/03 06:52:51;;;;;;;;;;;16.20;97.90;;;;;;4929655;29;19958;-79
2023/06/03 06:55:36;;;;;;;;;;;16.40;97.70;;;;;;4929487;29;20323;-79
2023/06/03 06:58:01;;;;;;;;;;;16.40;96.60;;;;;;4892332;29;19972;-78
2023/06/03 07:00:30;;;;;;;;;;;16.50;96.10;;;;;;4908347;29;20014;-79
2023/06/03 07:02:55;;;;;;;;;;;16.60;96.80;;;;;;4937862;29;19927;-80
2023/06/03 07:05:21;;;;;;;;;;;16.70;95.80;;;;;;4887620;29;19945;-79
2023/06/03 07:07:48;;;;;;;;;;;16.80;95.80;;;;;;4917120;29;19931;-79
2023/06/03 07:10:18;;;;;;;;;;;16.90;95.90;;;;;;4917330;29;19927;-79
2023/06/03 07:12:44;;;;;;;;;;;17.10;94.80;;;;;;4901180;29;19927;-79
2023/06/03 07:15:12;;;;;;;;;;;17.20;94.60;;;;;;4931072;29;22082;-78
2023/06/03 07:17:38;;;;;;;;;;;17.30;94.40;;;;;;4910928;29;19927;-79
2023/06/03 07:20:05;;;;;;;;;;;17.40;94.70;;;;;;4916589;29;19967;-80
2023/06/03 07:22:31;;;;;;;;;;;17.60;95.00;;;;;;4914764;29;19946;-81
2023/06/03 07:24:57;;;;;;;;;;;17.70;94.70;;;;;;4918929;29;19927;-79
2023/06/03 07:27:26;;;;;;;;;;;17.80;94.50;;;;;;4922224;29;19966;-79
2023/06/03 07:29:55;;;;;;;;;;;17.90;94.00;;;;;;4898495;29;19938;-79
2023/06/03 07:32:24;;;;;;;;;;;17.90;93.80;;;;;;4900208;29;19932;-80
2023/06/03 07:34:49;;;;;;;;;;;17.80;92.50;;;;;;4932627;29;20022;-78
2023/06/03 07:37:17;;;;;;;;;;;17.60;93.50;;;;;;4891742;29;19931;-78
2023/06/03 07:39:42;;;;;;;;;;;17.50;93.80;;;;;;4912208;29;19935;-79
2023/06/03 07:42:16;;;;;;;;;;;17.30;93.90;;;;;;4914893;29;20373;-80
2023/06/03 07:44:42;;;;;;;;;;;17.20;93.40;;;;;;4932087;29;19923;-80
2023/06/03 07:47:08;;;;;;;;;;;17.10;93.80;;;;;;4918776;29;20035;-79
2023/06/03 07:49:34;;;;;;;;;;;16.90;93.90;;;;;;4933318;29;19927;-79
2023/06/03 07:51:59;;;;;;;;;;;16.80;93.80;;;;;;4916417;29;19934;-79
2023/06/03 07:54:27;;;;;;;;;;;16.70;93.50;;;;;;4916712;29;19927;-80
2023/06/03 07:56:55;;;;;;;;;;;16.60;94.50;;;;;;4916499;29;19932;-79
2023/06/03 07:59:21;;;;;;;;;;;16.50;94.00;;;;;;4920860;29;19927;-80
2023/06/03 08:01:50;;;;;;;;;;;16.40;93.60;;;;;;4887101;29;19952;-81
2023/06/03 08:04:29;;;;;;;;;;;16.40;94.20;;;;;;4904541;29;19935;-80
2023/06/03 08:06:55;;;;;;;;;;;16.40;93.30;;;;;;4924354;29;19959;-80
2023/06/03 08:09:27;;;;;;;;;;;16.30;93.30;;;;;;4915027;29;19950;-80
2023/06/03 08:11:53;;;;;;;;;;;16.20;94.00;;;;;;4897966;29;19934;-80
2023/06/03 08:14:20;;;;;;;;;;;16.30;93.90;;;;;;4907022;29;19927;-79
2023/06/03 08:16:45;;;;;;;;;;;16.30;94.10;;;;;;4923333;29;19926;-79
2023/06/03 08:19:11;;;;;;;;;;;16.30;94.00;;;;;;4915316;29;19947;-80
2023/06/03 08:21:38;;;;;;;;;;;16.50;94.50;;;;;;4911139;29;19987;-80
2023/06/03 08:24:04;;;;;;;;;;;16.60;94.10;;;;;;4898683;29;19961;-80
2023/06/03 08:26:29;;;;;;;;;;;16.70;93.70;;;;;;4907392;29;20377;-80
2023/06/03 08:28:55;;;;;;;;;;;17.00;93.90;;;;;;4906129;29;20251;-79
2023/06/03 08:31:20;;;;;;;;;;;17.20;93.10;;;;;;4911513;29;19962;-80
2023/06/03 08:33:46;;;;;;;;;;;17.40;93.00;;;;;;4934347;29;19927;-81
2023/06/03 08:36:12;;;;;;;;;;;17.60;93.20;;;;;;4898349;29;19931;-79
2023/06/03 08:38:41;;;;;;;;;;;17.90;92.30;;;;;;4933135;29;20008;-80
2023/06/03 08:41:06;;;;;;;;;;;18.10;92.50;;;;;;4915059;29;20018;-80
2023/06/03 08:43:58;;;;;;;;;;;18.30;91.00;;;;;;4951918;29;19994;-79
2023/06/03 08:46:30;;;;;;;;;;;18.30;90.60;;;;;;4908133;29;19931;-81
2023/06/03 08:48:59;;;;;;;;;;;18.50;91.00;;;;;;4917014;29;19926;-80
2023/06/03 08:51:25;;;;;;;;;;;18.70;89.80;;;;;;4932382;29;19927;-81
2023/06/03 08:53:50;;;;;;;;;;;18.70;90.00;;;;;;4925800;29;19938;-80
2023/06/03 08:56:17;;;;;;;;;;;18.80;89.10;;;;;;4932659;29;19927;-79
2023/06/03 08:58:46;;;;;;;;;;;18.90;90.00;;;;;;4932510;29;19922;-80
2023/06/03 09:01:13;;;;;;;;;;;19.10;89.20;;;;;;4917700;29;19931;-80
2023/06/03 09:03:43;;;;;;;;;;;19.20;89.40;;;;;;4934548;29;19927;-80
2023/06/03 09:06:09;;;;;;;;;;;19.40;86.80;;;;;;4936742;29;19927;-79
2023/06/03 09:08:38;;;;;;;;;;;19.40;84.40;;;;;;4948041;29;19987;-80
2023/06/03 09:11:04;;;;;;;;;;;19.50;86.00;;;;;;4931400;29;19938;-81
2023/06/03 09:13:33;;;;;;;;;;;19.50;84.20;;;;;;4915787;29;20374;-80
2023/06/03 09:16:01;;;;;;;;;;;19.60;83.90;;;;;;4928037;29;19928;-80
2023/06/03 09:18:27;;;;;;;;;;;19.70;82.90;;;;;;4924740;29;19927;-80
2023/06/03 09:20:53;;;;;;;;;;;19.80;83.00;;;;;;4933415;29;19934;-79
2023/06/03 09:23:19;;;;;;;;;;;19.80;81.40;;;;;;4937927;29;20271;-80
2023/06/03 09:25:44;;;;;;;;;;;19.90;82.50;;;;;;4935659;29;19970;-80
2023/06/03 09:28:10;;;;;;;;;;;19.90;79.30;;;;;;4919445;29;19931;-80
2023/06/03 09:30:36;;;;;;;;;;;20.00;78.80;;;;;;4922162;29;19927;-82
2023/06/03 09:33:02;;;;;;;;;;;19.90;78.70;;;;;;4934915;29;19955;-79
2023/06/03 09:35:27;;;;;;;;;;;20.00;79.20;;;;;;4924909;29;19943;-80
2023/06/03 09:37:57;;;;;;;;;;;20.10;78.00;;;;;;4921352;29;19974;-80
2023/06/03 09:40:29;;;;;;;;;;;20.10;78.50;;;;;;4922262;29;19938;-80
2023/06/03 09:42:55;;;;;;;;;;;20.20;77.70;;;;;;4909304;29;19927;-80
2023/06/03 09:45:31;;;;;;;;;;;20.20;77.90;;;;;;4921162;29;19927;-79
2023/06/03 09:47:57;;;;;;;;;;;20.20;78.10;;;;;;4939986;29;19986;-79
2023/06/03 09:50:24;;;;;;;;;;;20.30;77.10;;;;;;4919536;29;19931;-79
2023/06/03 09:52:49;;;;;;;;;;;20.20;75.10;;;;;;4915588;29;20393;-78
2023/06/03 09:55:15;;;;;;;;;;;20.30;76.00;;;;;;4938038;29;19986;-80
2023/06/03 09:57:41;;;;;;;;;;;20.30;76.80;;;;;;4916915;29;19927;-78
2023/06/03 10:00:11;;;;;;;;;;;20.30;76.60;;;;;;4916852;29;20437;-79
2023/06/03 10:02:37;;;;;;;;;;;20.30;76.40;;;;;;4912777;29;19939;-79
2023/06/03 10:05:03;;;;;;;;;;;20.50;77.00;;;;;;4916860;29;19993;-78
2023/06/03 10:07:28;;;;;;;;;;;20.60;75.00;;;;;;4901112;29;19927;-78
2023/06/03 10:10:04;;;;;;;;;;;20.70;75.00;;;;;;4932033;29;19931;-80
2023/06/03 10:12:30;;;;;;;;;;;20.70;74.70;;;;;;4918341;29;20404;-78
2023/06/03 10:14:58;;;;;;;;;;;20.60;73.50;;;;;;4934053;29;19958;-78
2023/06/03 10:17:24;;;;;;;;;;;20.60;72.60;;;;;;4917772;29;19911;-78
2023/06/03 10:19:50;;;;;;;;;;;20.70;75.10;;;;;;4928012;29;19950;-79
2023/06/03 10:22:17;;;;;;;;;;;20.80;73.20;;;;;;4923778;29;19977;-78
2023/06/03 10:24:47;;;;;;;;;;;20.90;73.60;;;;;;4921726;29;19939;-79
2023/06/03 10:27:14;;;;;;;;;;;21.00;72.90;;;;;;4916496;29;19982;-81
2023/06/03 10:29:40;;;;;;;;;;;21.00;72.50;;;;;;4915333;29;19951;-80
2023/06/03 10:32:06;;;;;;;;;;;20.90;72.40;;;;;;4932417;29;19933;-79
2023/06/03 10:34:37;;;;;;;;;;;21.00;72.30;;;;;;4913739;29;19931;-79
2023/06/03 10:37:03;;;;;;;;;;;21.00;71.80;;;;;;4928814;29;19931;-80
2023/06/03 10:39:32;;;;;;;;;;;20.80;71.20;;;;;;4933434;29;19927;-78
2023/06/03 10:41:58;;;;;;;;;;;20.80;71.30;;;;;;4899543;29;19935;-79
2023/06/03 10:44:24;;;;;;;;;;;21.00;72.10;;;;;;4901150;29;19939;-80
2023/06/03 10:47:15;;;;;;;;;;;21.20;73.10;;;;;;4929778;29;19927;-78
2023/06/03 10:49:47;;;;;;;;;;;21.40;71.30;;;;;;4929014;29;19927;-79
2023/06/03 10:52:31;;;;;;;;;;;21.60;70.20;;;;;;4932045;29;19935;-79
2023/06/03 10:55:02;;;;;;;;;;;21.70;70.50;;;;;;4945240;29;19951;-80
2023/06/03 10:57:34;;;;;;;;;;;22.00;71.60;;;;;;4916614;29;20420;-80
2023/06/03 11:00:00;;;;;;;;;;;22.00;69.40;;;;;;4925120;29;19928;-79
2023/06/03 11:02:26;;;;;;;;;;;22.10;69.70;;;;;;4909162;29;19939;-78
2023/06/03 11:05:11;;;;;;;;;;;22.00;69.30;;;;;;4911073;29;19955;-79
2023/06/03 11:07:40;;;;;;;;;;;22.00;67.80;;;;;;4909082;29;19927;-79
2023/06/03 11:10:24;;;;;;;;;;;22.10;69.40;;;;;;4931842;29;19935;-78
2023/06/03 11:12:50;;;;;;;;;;;22.10;69.80;;;;;;4932264;29;19927;-79
2023/06/03 11:15:15;;;;;;;;;;;22.20;70.10;;;;;;4912057;29;19955;-81
2023/06/03 11:18:01;;;;;;;;;;;22.40;69.70;;;;;;4929148;29;19972;-79
2023/06/03 11:20:37;;;;;;;;;;;22.60;68.80;;;;;;4911611;29;20309;-78
2023/06/03 11:23:03;;;;;;;;;;;22.90;68.00;;;;;;4897529;29;19931;-79
2023/06/03 11:25:29;;;;;;;;;;;23.00;67.30;;;;;;4926803;29;19911;-79
2023/06/03 11:28:14;;;;;;;;;;;23.20;68.00;;;;;;4936102;29;19927;-78
2023/06/03 11:30:54;;;;;;;;;;;23.20;65.40;;;;;;4898779;29;19927;-79
2023/06/03 11:33:20;;;;;;;;;;;23.10;64.10;;;;;;4924073;29;19955;-81
2023/06/03 11:35:46;;;;;;;;;;;23.00;63.40;;;;;;4901236;29;19992;-80
2023/06/03 11:38:11;;;;;;;;;;;22.90;65.50;;;;;;4927193;29;19918;-79
2023/06/03 11:40:44;;;;;;;;;;;22.80;63.80;;;;;;4900529;29;20346;-79
2023/06/03 11:43:10;;;;;;;;;;;22.90;64.80;;;;;;4917017;29;19927;-81
2023/06/03 11:45:37;;;;;;;;;;;22.90;65.80;;;;;;4929096;29;19952;-79
2023/06/03 11:48:05;;;;;;;;;;;22.90;64.90;;;;;;4927658;29;19938;-80
2023/06/03 11:50:32;;;;;;;;;;;22.90;63.80;;;;;;4929538;29;19967;-80
2023/06/03 11:52:58;;;;;;;;;;;22.80;63.00;;;;;;4919159;29;19928;-79
2023/06/03 11:55:28;;;;;;;;;;;22.80;66.30;;;;;;4896458;29;19938;-81
2023/06/03 11:58:00;;;;;;;;;;;22.80;66.40;;;;;;4912282;29;19938;-79
2023/06/03 12:00:25;;;;;;;;;;;22.90;63.90;;;;;;4930462;29;19927;-79
2023/06/03 12:02:53;;;;;;;;;;;22.80;65.30;;;;;;4931084;29;19923;-79
2023/06/03 12:05:19;;;;;;;;;;;22.80;64.60;;;;;;4934363;29;19934;-80
2023/06/03 12:08:04;;;;;;;;;;;22.90;64.90;;;;;;4917917;29;19928;-79
2023/06/03 12:10:39;;;;;;;;;;;23.00;66.00;;;;;;4912930;29;19927;-78
2023/06/03 12:13:05;;;;;;;;;;;23.00;64.10;;;;;;4899679;29;20019;-78
2023/06/03 12:15:30;;;;;;;;;;;23.10;65.40;;;;;;4914522;29;19928;-79
2023/06/03 12:18:02;;;;;;;;;;;23.00;63.90;;;;;;4933011;29;19963;-79
2023/06/03 12:20:28;;;;;;;;;;;22.90;63.80;;;;;;4898913;29;19927;-79
2023/06/03 12:23:01;;;;;;;;;;;22.80;65.50;;;;;;4946591;29;19923;-81
2023/06/03 12:25:28;;;;;;;;;;;22.70;64.80;;;;;;4936754;29;19934;-79
2023/06/03 12:27:54;;;;;;;;;;;22.50;64.30;;;;;;4923208;29;19927;-79
2023/06/03 12:30:30;;;;;;;;;;;22.20;65.50;;;;;;4922041;29;19911;-80
2023/06/03 12:32:58;;;;;;;;;;;22.30;65.70;;;;;;4908058;29;19927;-78
2023/06/03 12:35:25;;;;;;;;;;;22.40;65.20;;;;;;4913929;29;19997;-80
2023/06/03 12:38:04;;;;;;;;;;;22.30;63.60;;;;;;4902168;29;19967;-80
2023/06/03 12:40:30;;;;;;;;;;;22.00;65.70;;;;;;4930201;29;19927;-80
2023/06/03 12:42:57;;;;;;;;;;;22.00;65.90;;;;;;4915486;29;19991;-80
2023/06/03 12:45:26;;;;;;;;;;;22.20;67.20;;;;;;4916066;29;19927;-78
2023/06/03 12:47:53;;;;;;;;;;;22.40;66.80;;;;;;4933093;29;19927;-80
2023/06/03 12:50:20;;;;;;;;;;;22.40;67.70;;;;;;4936879;29;19952;-79
2023/06/03 12:52:46;;;;;;;;;;;22.50;67.40;;;;;;4933595;29;20047;-80
2023/06/03 12:55:14;;;;;;;;;;;22.40;66.40;;;;;;4930087;29;19970;-79
2023/06/03 12:57:40;;;;;;;;;;;22.40;65.30;;;;;;4952888;29;19994;-79
2023/06/03 13:00:08;;;;;;;;;;;22.20;70.30;;;;;;4942673;29;19930;-79
2023/06/03 13:02:37;;;;;;;;;;;22.30;66.80;;;;;;4934303;29;19937;-80
2023/06/03 13:05:04;;;;;;;;;;;22.50;66.60;;;;;;4900931;29;19963;-80
2023/06/03 13:07:30;;;;;;;;;;;22.50;66.60;;;;;;4916554;29;19947;-81
2023/06/03 13:09:59;;;;;;;;;;;22.60;67.80;;;;;;4920904;29;19938;-79
2023/06/03 13:12:25;;;;;;;;;;;22.70;66.70;;;;;;4918284;29;19990;-80
2023/06/03 13:14:51;;;;;;;;;;;22.80;67.20;;;;;;4914604;29;19918;-81
2023/06/03 13:17:16;;;;;;;;;;;22.90;65.70;;;;;;4917416;29;19951;-79
2023/06/03 13:19:42;;;;;;;;;;;22.90;66.80;;;;;;4897906;29;20462;-80
2023/06/03 13:22:08;;;;;;;;;;;22.90;64.90;;;;;;4911748;29;19928;-80
2023/06/03 13:24:34;;;;;;;;;;;22.50;64.80;;;;;;4900638;29;19999;-79
2023/06/03 13:27:00;;;;;;;;;;;22.30;67.40;;;;;;4903170;29;19916;-79
2023/06/03 13:29:27;;;;;;;;;;;22.20;67.40;;;;;;4903555;29;19915;-80
2023/06/03 13:31:52;;;;;;;;;;;22.40;66.30;;;;;;4915064;29;19968;-81
2023/06/03 13:34:18;;;;;;;;;;;22.50;67.30;;;;;;4919141;29;19942;-80
2023/06/03 13:36:43;;;;;;;;;;;22.50;67.40;;;;;;4918212;29;19923;-80
2023/06/03 13:39:09;;;;;;;;;;;22.50;65.90;;;;;;4915699;29;19938;-79
2023/06/03 13:41:35;;;;;;;;;;;22.20;66.20;;;;;;4916121;29;19995;-79
2023/06/03 13:44:01;;;;;;;;;;;22.10;68.10;;;;;;4900324;29;19938;-79
2023/06/03 13:46:26;;;;;;;;;;;21.90;67.20;;;;;;4919285;29;19927;-79
2023/06/03 13:48:52;;;;;;;;;;;22.00;66.80;;;;;;4901871;29;19927;-79
2023/06/03 13:51:17;;;;;;;;;;;21.90;67.70;;;;;;4919767;29;19928;-78
2023/06/03 13:53:43;;;;;;;;;;;22.10;67.30;;;;;;4901491;29;19916;-79
2023/06/03 13:56:09;;;;;;;;;;;22.20;68.40;;;;;;4934080;29;20054;-80
2023/06/03 13:58:34;;;;;;;;;;;22.60;70.50;;;;;;4917148;29;19962;-79
2023/06/03 14:01:00;;;;;;;;;;;22.90;68.90;;;;;;4917459;29;19928;-79
2023/06/03 14:03:25;;;;;;;;;;;22.90;69.20;;;;;;4916801;29;19936;-80
2023/06/03 14:05:51;;;;;;;;;;;23.10;65.80;;;;;;4906184;29;19928;-79
2023/06/03 14:08:16;;;;;;;;;;;23.10;67.00;;;;;;4886968;29;19962;-80
2023/06/03 14:10:42;;;;;;;;;;;22.80;66.80;;;;;;4935868;29;19927;-80
2023/06/03 14:13:08;;;;;;;;;;;22.70;67.40;;;;;;4927576;29;19927;-80
2023/06/03 14:15:36;;;;;;;;;;;22.90;66.00;;;;;;4907998;29;19930;-79
2023/06/03 14:18:01;;;;;;;;;;;22.90;66.80;;;;;;4936342;29;19927;-81